Time;durP1;ratioP1;P1;durP2;ratioP2;P2;SDS_P1;SDS_P2;PMS_P1;PMS_P2;Temp;Humidity;BMP_temperature;BMP_pressure;BME280_temperature;BME280_humidity;BME280_pressure;Samples;Min_cycle;Max_cycle;Signal;HPM_P1;HPM_P2
2022/03/10 00:00:20;;;;;;;6.40;4.05;;;16.90;35.90;;;;;;5124577;27;45421;-76
2022/03/10 00:02:47;;;;;;;5.13;3.58;;;16.90;36.10;;;;;;5124331;27;45199;-76
2022/03/10 00:05:16;;;;;;;6.72;4.20;;;16.90;35.60;;;;;;5112682;27;45396;-76
2022/03/10 00:07:44;;;;;;;5.32;3.72;;;16.90;35.50;;;;;;5117738;27;48138;-76
2022/03/10 00:10:11;;;;;;;6.80;3.97;;;17.00;37.00;;;;;;5120769;27;45163;-76
2022/03/10 00:12:38;;;;;;;4.97;3.40;;;17.00;35.80;;;;;;5128935;27;45421;-76
2022/03/10 00:15:08;;;;;;;5.80;3.95;;;17.00;35.70;;;;;;5111896;27;45144;-77
2022/03/10 00:17:35;;;;;;;6.15;3.95;;;17.00;35.70;;;;;;5128392;27;48043;-76
2022/03/10 00:20:02;;;;;;;5.22;3.60;;;17.00;35.70;;;;;;5121865;27;45277;-77
2022/03/10 00:22:29;;;;;;;6.93;3.83;;;17.00;35.50;;;;;;5116656;27;45306;-76
2022/03/10 00:24:57;;;;;;;5.78;3.65;;;16.90;35.40;;;;;;5114361;27;45335;-77
2022/03/10 00:27:24;;;;;;;6.13;3.95;;;16.90;35.90;;;;;;5121929;27;48247;-77
2022/03/10 00:29:50;;;;;;;6.72;4.05;;;16.90;35.80;;;;;;5109750;27;45344;-77
2022/03/10 00:32:17;;;;;;;5.45;3.60;;;16.90;35.90;;;;;;5109559;27;45412;-76
2022/03/10 00:34:44;;;;;;;6.85;3.88;;;16.90;35.90;;;;;;5123907;27;45414;-76
2022/03/10 00:37:11;;;;;;;5.63;3.58;;;16.90;35.80;;;;;;5129533;27;46590;-76
2022/03/10 00:39:38;;;;;;;6.45;3.92;;;16.90;36.00;;;;;;5125609;27;45355;-77
2022/03/10 00:42:06;;;;;;;5.88;4.10;;;16.90;36.00;;;;;;5127608;27;45436;-76
2022/03/10 00:44:33;;;;;;;5.10;3.60;;;16.90;36.00;;;;;;5130748;27;45266;-77
2022/03/10 00:47:00;;;;;;;7.10;3.75;;;16.90;35.90;;;;;;5125771;27;46117;-76
2022/03/10 00:49:27;;;;;;;5.18;3.65;;;16.90;35.80;;;;;;5109670;27;45259;-76
2022/03/10 00:51:54;;;;;;;6.68;4.57;;;16.90;35.80;;;;;;5109730;27;45206;-76
2022/03/10 00:54:20;;;;;;;6.60;4.32;;;16.90;35.70;;;;;;5118987;27;45322;-77
2022/03/10 00:56:47;;;;;;;6.00;3.88;;;16.90;35.50;;;;;;5128920;27;47415;-77
2022/03/10 00:59:15;;;;;;;6.32;4.38;;;16.90;35.50;;;;;;5129783;27;45339;-76
2022/03/10 01:01:42;;;;;;;4.85;3.72;;;17.00;35.30;;;;;;5114542;27;45359;-77
2022/03/10 01:04:09;;;;;;;6.55;4.13;;;17.00;35.50;;;;;;5129447;27;45393;-77
2022/03/10 01:06:36;;;;;;;6.38;4.47;;;17.00;35.20;;;;;;5119451;27;47401;-77
2022/03/10 01:09:02;;;;;;;6.88;4.30;;;17.00;35.20;;;;;;5108346;27;45277;-76
2022/03/10 01:11:29;;;;;;;7.13;4.03;;;17.00;35.10;;;;;;5121720;27;45427;-77
2022/03/10 01:13:57;;;;;;;7.60;4.97;;;16.90;35.10;;;;;;5126136;27;45076;-77
2022/03/10 01:16:25;;;;;;;6.50;4.40;;;16.90;35.20;;;;;;5125907;27;46639;-77
2022/03/10 01:18:51;;;;;;;6.70;4.32;;;16.90;35.40;;;;;;5114255;27;45282;-77
2022/03/10 01:21:18;;;;;;;6.13;4.28;;;16.90;35.30;;;;;;5110563;27;45371;-77
2022/03/10 01:23:45;;;;;;;5.32;3.88;;;16.90;35.40;;;;;;5114339;27;45268;-76
2022/03/10 01:26:12;;;;;;;6.35;4.68;;;16.90;35.40;;;;;;5128516;27;47444;-77
2022/03/10 01:28:39;;;;;;;6.68;4.53;;;16.90;35.00;;;;;;5126562;27;45449;-76
2022/03/10 01:31:05;;;;;;;7.40;4.78;;;16.80;35.20;;;;;;5115991;27;45225;-76
2022/03/10 01:33:34;;;;;;;6.68;4.20;;;16.80;35.10;;;;;;5112676;27;45444;-77
2022/03/10 01:36:01;;;;;;;6.22;4.45;;;16.80;34.90;;;;;;5120534;27;46185;-77
2022/03/10 01:38:28;;;;;;;6.18;4.07;;;16.80;35.00;;;;;;5113781;27;45775;-77
2022/03/10 01:40:54;;;;;;;7.97;4.68;;;16.90;34.80;;;;;;5120312;27;45113;-77
2022/03/10 01:43:21;;;;;;;6.57;3.97;;;16.90;34.70;;;;;;5121398;27;45484;-77
2022/03/10 01:45:48;;;;;;;6.95;4.20;;;16.90;34.80;;;;;;5122149;27;48098;-77
2022/03/10 01:48:15;;;;;;;6.15;4.15;;;16.90;34.80;;;;;;5120962;27;45179;-77
2022/03/10 01:50:43;;;;;;;5.93;4.10;;;16.90;36.10;;;;;;5111068;27;45158;-77
2022/03/10 01:53:10;;;;;;;5.82;4.15;;;17.00;34.80;;;;;;5118455;27;45252;-77
2022/03/10 01:55:37;;;;;;;8.27;4.57;;;17.00;34.70;;;;;;5138070;27;45276;-77
2022/03/10 01:58:04;;;;;;;6.43;4.50;;;17.00;34.70;;;;;;5112248;27;45172;-77
2022/03/10 02:00:31;;;;;;;6.25;4.28;;;17.00;34.50;;;;;;5118357;27;46291;-76
2022/03/10 02:02:58;;;;;;;7.07;4.53;;;16.90;34.60;;;;;;5114518;27;45233;-77
2022/03/10 02:05:24;;;;;;;5.78;4.18;;;16.90;34.50;;;;;;5125687;27;45357;-77
2022/03/10 02:10:39;;;;;;;6.75;4.60;;;16.90;34.40;;;;;;5111174;27;45247;-77
2022/03/10 02:13:05;;;;;;;6.75;4.35;;;16.80;34.40;;;;;;5115729;27;45478;-77
2022/03/10 02:18:17;;;;;;;6.32;4.47;;;16.80;34.50;;;;;;5127189;27;45204;-77
2022/03/10 02:20:44;;;;;;;6.07;4.50;;;16.80;34.40;;;;;;5113222;27;45197;-77
2022/03/10 02:23:13;;;;;;;7.55;4.90;;;16.80;34.50;;;;;;5118754;27;45384;-77
2022/03/10 02:25:41;;;;;;;6.90;4.53;;;16.80;34.30;;;;;;5113294;27;46311;-77
2022/03/10 02:28:08;;;;;;;5.53;4.43;;;16.90;34.80;;;;;;5127483;27;45128;-77
2022/03/10 02:30:36;;;;;;;6.22;4.07;;;16.90;34.60;;;;;;5111749;27;45355;-77
2022/03/10 02:33:04;;;;;;;7.07;4.05;;;16.90;34.60;;;;;;5119895;27;45458;-77
2022/03/10 02:35:31;;;;;;;6.18;3.85;;;16.90;34.50;;;;;;5127530;27;47515;-77
2022/03/10 02:37:58;;;;;;;7.18;4.68;;;16.90;34.50;;;;;;5124500;27;45178;-77
2022/03/10 02:40:27;;;;;;;6.68;4.30;;;16.90;34.60;;;;;;5127636;27;45274;-77
2022/03/10 02:42:54;;;;;;;5.55;4.10;;;16.90;34.60;;;;;;5126732;27;45631;-77
2022/03/10 02:45:21;;;;;;;6.38;4.25;;;16.90;34.40;;;;;;5125682;27;46389;-77
2022/03/10 02:47:48;;;;;;;5.95;3.95;;;16.90;34.20;;;;;;5107978;27;45218;-77
2022/03/10 02:50:15;;;;;;;7.25;4.97;;;16.90;34.30;;;;;;5107792;27;45204;-77
2022/03/10 02:52:44;;;;;;;6.30;4.45;;;16.90;34.20;;;;;;5124093;27;45455;-77
2022/03/10 02:55:11;;;;;;;6.88;4.80;;;16.90;34.30;;;;;;5126384;27;46894;-77
2022/03/10 02:57:39;;;;;;;7.57;4.70;;;16.90;34.30;;;;;;5107774;27;45686;-77
2022/03/10 03:00:08;;;;;;;5.63;4.00;;;16.80;34.20;;;;;;5106482;27;45359;-77
2022/03/10 03:02:35;;;;;;;6.40;4.20;;;16.80;34.50;;;;;;5108832;27;45491;-77
2022/03/10 03:05:03;;;;;;;7.22;4.03;;;16.80;34.40;;;;;;5133264;27;45462;-77
2022/03/10 03:07:29;;;;;;;6.20;4.15;;;16.80;34.40;;;;;;5140200;27;45211;-77
2022/03/10 03:09:56;;;;;;;6.35;4.25;;;16.80;34.40;;;;;;5129187;27;45341;-77
2022/03/10 03:12:23;;;;;;;6.18;4.18;;;16.80;34.40;;;;;;5113187;27;45375;-77
2022/03/10 03:14:51;;;;;;;7.85;4.57;;;16.80;34.20;;;;;;5104374;27;46423;-77
2022/03/10 03:17:18;;;;;;;8.90;4.72;;;16.80;34.40;;;;;;5108398;27;46217;-77
2022/03/10 03:19:45;;;;;;;5.55;4.03;;;16.90;34.60;;;;;;5111971;27;45381;-77
2022/03/10 03:22:12;;;;;;;5.88;4.05;;;16.90;34.70;;;;;;5108029;27;45438;-77
2022/03/10 03:24:39;;;;;;;7.25;4.10;;;16.90;34.60;;;;;;5123920;27;45263;-77
2022/03/10 03:27:05;;;;;;;8.63;4.65;;;16.90;34.50;;;;;;5127964;27;45326;-77
2022/03/10 03:29:32;;;;;;;6.25;4.00;;;16.90;34.30;;;;;;5122077;27;45333;-76
2022/03/10 03:32:01;;;;;;;6.88;4.38;;;16.90;34.40;;;;;;5122832;27;45353;-77
2022/03/10 03:34:28;;;;;;;6.43;4.20;;;16.90;34.10;;;;;;5110900;27;45218;-77
2022/03/10 03:36:55;;;;;;;5.63;4.50;;;16.90;33.80;;;;;;5120851;27;45164;-77
2022/03/10 03:39:22;;;;;;;5.35;4.00;;;16.90;34.10;;;;;;5122179;27;45190;-77
2022/03/10 03:41:49;;;;;;;6.32;4.20;;;16.90;33.90;;;;;;5108571;27;45234;-77
2022/03/10 03:44:16;;;;;;;5.15;3.70;;;16.90;34.00;;;;;;5124402;27;45515;-77
2022/03/10 03:46:43;;;;;;;6.68;4.22;;;16.80;34.10;;;;;;5126601;27;45219;-77
2022/03/10 03:49:11;;;;;;;6.25;4.10;;;16.80;34.10;;;;;;5121040;27;45198;-77
2022/03/10 03:51:39;;;;;;;6.32;4.38;;;16.80;34.10;;;;;;5110652;27;45467;-77
2022/03/10 03:54:07;;;;;;;5.10;3.88;;;16.80;34.10;;;;;;5110727;27;45271;-77
2022/03/10 03:56:34;;;;;;;5.47;4.03;;;16.80;34.30;;;;;;5117312;27;45297;-77
2022/03/10 03:59:01;;;;;;;6.45;4.63;;;16.80;34.50;;;;;;5129286;27;45308;-77
2022/03/10 04:01:28;;;;;;;5.53;3.85;;;16.80;34.50;;;;;;5130325;27;45874;-77
2022/03/10 04:03:55;;;;;;;6.15;4.15;;;16.80;34.50;;;;;;5129543;27;45316;-77
2022/03/10 04:06:24;;;;;;;5.90;4.30;;;16.80;34.50;;;;;;5118567;27;45376;-77
2022/03/10 04:08:51;;;;;;;6.22;4.45;;;16.80;34.50;;;;;;5121534;27;45385;-77
2022/03/10 04:11:18;;;;;;;5.57;3.92;;;16.90;34.50;;;;;;5132840;27;45361;-76
2022/03/10 04:13:45;;;;;;;7.72;4.68;;;16.90;34.40;;;;;;5125332;27;46207;-76
2022/03/10 04:16:12;;;;;;;5.47;4.03;;;16.90;34.00;;;;;;5109011;27;45223;-78
2022/03/10 04:18:39;;;;;;;6.63;4.20;;;16.80;34.10;;;;;;5124911;27;45270;-77
2022/03/10 04:21:06;;;;;;;6.55;4.57;;;16.80;34.30;;;;;;5124524;27;45204;-76
2022/03/10 04:23:34;;;;;;;5.55;4.43;;;16.80;33.90;;;;;;5122310;27;47379;-77
2022/03/10 04:26:01;;;;;;;6.10;4.38;;;16.80;33.80;;;;;;5123379;27;45312;-76
2022/03/10 04:28:28;;;;;;;6.90;4.60;;;16.70;33.20;;;;;;5127787;27;45187;-77
2022/03/10 04:30:55;;;;;;;6.50;4.72;;;16.70;33.20;;;;;;5127084;27;45222;-77
2022/03/10 04:33:22;;;;;;;6.40;4.70;;;16.70;33.30;;;;;;5118654;27;47419;-78
2022/03/10 04:35:51;;;;;;;7.57;4.75;;;16.70;32.70;;;;;;5128650;27;45244;-77
2022/03/10 04:38:18;;;;;;;7.32;5.03;;;16.70;32.90;;;;;;5128451;27;45348;-77
2022/03/10 04:40:48;;;;;;;8.18;4.82;;;16.70;32.50;;;;;;5126079;27;45343;-77
2022/03/10 04:43:16;;;;;;;7.82;4.65;;;16.70;32.80;;;;;;5128484;27;45280;-77
2022/03/10 04:45:42;;;;;;;7.65;4.75;;;16.70;32.50;;;;;;5128139;27;45250;-77
2022/03/10 04:48:10;;;;;;;7.70;5.10;;;16.70;32.80;;;;;;5130343;27;45336;-77
2022/03/10 04:50:37;;;;;;;6.68;4.93;;;16.60;32.20;;;;;;5127804;27;45490;-77
2022/03/10 04:53:04;;;;;;;7.32;5.00;;;16.70;32.50;;;;;;5129067;27;47088;-77
2022/03/10 04:55:31;;;;;;;8.00;5.10;;;16.60;32.50;;;;;;5128787;27;45228;-78
2022/03/10 04:58:00;;;;;;;7.63;5.03;;;16.70;33.00;;;;;;5122133;27;45233;-77
2022/03/10 05:00:27;;;;;;;7.78;4.88;;;16.70;32.90;;;;;;5124373;27;45580;-77
2022/03/10 05:02:54;;;;;;;6.18;5.00;;;16.70;32.70;;;;;;5120841;27;46514;-77
2022/03/10 05:05:20;;;;;;;7.72;5.03;;;16.70;32.70;;;;;;5110370;27;45337;-77
2022/03/10 05:07:47;;;;;;;7.30;4.82;;;16.70;32.90;;;;;;5115277;27;45233;-77
2022/03/10 05:10:15;;;;;;;7.00;4.68;;;16.70;32.80;;;;;;5121405;27;45312;-77
2022/03/10 05:12:47;;;;;;;10.35;5.50;;;16.70;32.80;;;;;;5116272;27;46508;-77
2022/03/10 05:15:18;;;;;;;6.88;4.68;;;16.60;32.70;;;;;;5110760;27;45303;-76
2022/03/10 05:17:45;;;;;;;6.50;4.57;;;16.60;32.70;;;;;;5117115;27;45479;-77
2022/03/10 05:20:13;;;;;;;8.68;5.63;;;16.60;32.90;;;;;;5111481;27;45517;-77
2022/03/10 05:22:45;;;;;;;8.68;5.60;;;16.60;32.50;;;;;;5128628;27;45339;-77
2022/03/10 05:25:13;;;;;;;7.68;4.80;;;16.50;32.20;;;;;;5134143;27;45296;-77
2022/03/10 05:27:41;;;;;;;7.00;5.15;;;16.50;32.50;;;;;;5118769;27;45487;-77
2022/03/10 05:30:09;;;;;;;7.07;5.18;;;16.50;32.40;;;;;;5125065;27;45448;-77
2022/03/10 05:32:38;;;;;;;7.20;5.03;;;16.50;32.20;;;;;;5121501;27;45722;-77
2022/03/10 05:35:06;;;;;;;8.07;5.40;;;16.50;32.10;;;;;;5123224;27;45269;-77
2022/03/10 05:37:35;;;;;;;8.18;5.57;;;16.50;31.90;;;;;;5117807;27;45264;-77
2022/03/10 05:40:02;;;;;;;9.77;6.15;;;16.50;32.20;;;;;;5127326;27;45811;-77
2022/03/10 05:42:29;;;;;;;8.45;5.50;;;16.60;31.60;;;;;;5127534;27;45332;-77
2022/03/10 05:44:56;;;;;;;8.25;5.78;;;16.60;31.40;;;;;;5127988;27;45475;-77
2022/03/10 05:47:23;;;;;;;7.93;5.30;;;16.70;31.60;;;;;;5124818;27;45132;-78
2022/03/10 05:49:52;;;;;;;8.38;5.30;;;16.60;31.80;;;;;;5125815;27;45281;-79
2022/03/10 05:52:18;;;;;;;8.55;5.32;;;16.60;31.80;;;;;;5126305;27;46428;-78
2022/03/10 05:54:45;;;;;;;7.78;5.50;;;16.50;32.00;;;;;;5115449;27;45354;-77
2022/03/10 05:57:12;;;;;;;9.57;5.30;;;16.50;32.10;;;;;;5123901;27;45202;-78
2022/03/10 05:59:39;;;;;;;7.18;5.22;;;16.50;32.10;;;;;;5127951;27;45326;-78
2022/03/10 06:02:06;;;;;;;7.45;5.10;;;16.50;32.20;;;;;;5124718;27;47112;-78
2022/03/10 06:04:32;;;;;;;9.40;5.20;;;16.70;32.30;;;;;;5125920;27;45795;-77
2022/03/10 06:07:01;;;;;;;7.80;5.38;;;16.50;33.50;;;;;;5114329;27;45135;-77
2022/03/10 06:09:28;;;;;;;10.27;5.75;;;16.50;32.90;;;;;;5120162;27;45152;-77
2022/03/10 06:11:55;;;;;;;8.52;5.55;;;16.50;32.30;;;;;;5127797;27;46246;-77
2022/03/10 06:14:22;;;;;;;8.15;5.53;;;16.50;32.10;;;;;;5126477;27;45185;-78
2022/03/10 06:16:49;;;;;;;9.55;6.07;;;16.50;31.70;;;;;;5121782;27;45199;-77
2022/03/10 06:19:16;;;;;;;8.75;5.75;;;16.40;31.70;;;;;;5123544;27;45409;-77
2022/03/10 06:21:43;;;;;;;9.10;5.47;;;16.40;31.60;;;;;;5122648;27;45994;-77
2022/03/10 06:24:11;;;;;;;8.00;5.72;;;16.40;31.60;;;;;;5125890;27;46616;-77
2022/03/10 06:26:38;;;;;;;9.70;5.65;;;16.40;31.50;;;;;;5123089;27;45308;-77
2022/03/10 06:29:06;;;;;;;8.25;5.60;;;16.40;31.50;;;;;;5126685;27;45208;-78
2022/03/10 06:31:33;;;;;;;7.65;5.00;;;16.40;32.10;;;;;;5125923;27;45434;-77
2022/03/10 06:34:00;;;;;;;8.32;5.32;;;16.40;31.80;;;;;;5119433;27;45565;-79
2022/03/10 06:36:27;;;;;;;7.75;5.50;;;16.50;32.10;;;;;;5126998;27;45466;-78
2022/03/10 06:38:54;;;;;;;8.65;5.00;;;16.60;32.70;;;;;;5123411;27;45254;-78
2022/03/10 06:41:22;;;;;;;6.93;4.53;;;16.60;33.20;;;;;;5117528;27;45330;-77
2022/03/10 06:43:49;;;;;;;5.90;4.95;;;16.70;33.90;;;;;;5127751;27;45236;-77
2022/03/10 06:46:16;;;;;;;7.25;5.38;;;16.70;34.00;;;;;;5127094;27;45217;-77
2022/03/10 06:48:43;;;;;;;6.63;4.60;;;16.70;34.20;;;;;;5128118;27;45467;-77
2022/03/10 06:51:10;;;;;;;7.63;5.18;;;16.70;34.40;;;;;;5110179;27;45678;-78
2022/03/10 06:53:37;;;;;;;6.63;4.78;;;16.70;34.80;;;;;;5114016;27;45480;-77
2022/03/10 06:56:04;;;;;;;6.90;4.85;;;16.80;35.00;;;;;;5107285;27;45215;-78
2022/03/10 06:58:32;;;;;;;6.32;4.40;;;16.70;35.00;;;;;;5107494;27;45501;-77
2022/03/10 07:00:59;;;;;;;7.43;5.13;;;16.70;36.30;;;;;;5106875;27;45611;-78
2022/03/10 07:03:26;;;;;;;7.57;4.57;;;16.70;35.20;;;;;;5107552;27;45254;-77
2022/03/10 07:05:53;;;;;;;7.72;4.63;;;16.70;35.40;;;;;;5120723;27;45201;-78
2022/03/10 07:08:19;;;;;;;6.15;4.55;;;16.70;35.50;;;;;;5118211;27;45290;-78
2022/03/10 07:10:46;;;;;;;9.55;4.95;;;16.80;35.50;;;;;;5124193;27;47954;-78
2022/03/10 07:13:13;;;;;;;6.70;4.40;;;16.70;35.70;;;;;;5127709;27;45185;-78
2022/03/10 07:15:41;;;;;;;8.00;4.40;;;16.80;35.50;;;;;;5121704;27;45263;-78
2022/03/10 07:18:08;;;;;;;6.97;4.38;;;16.80;35.80;;;;;;5122781;27;45570;-78
2022/03/10 07:20:35;;;;;;;7.35;4.60;;;16.80;35.70;;;;;;5127745;27;46629;-78
2022/03/10 07:23:02;;;;;;;6.13;4.45;;;16.80;35.70;;;;;;5129270;27;45158;-78
2022/03/10 07:25:28;;;;;;;5.50;3.92;;;16.90;37.00;;;;;;5121948;27;45501;-78
2022/03/10 07:27:55;;;;;;;5.97;3.80;;;16.90;35.90;;;;;;5124907;27;45839;-78
2022/03/10 07:30:22;;;;;;;5.32;3.70;;;16.90;35.90;;;;;;5121345;27;46185;-78
2022/03/10 07:32:51;;;;;;;5.32;4.00;;;16.90;37.00;;;;;;5117583;27;45254;-78
2022/03/10 07:35:17;;;;;;;8.65;4.55;;;16.90;35.80;;;;;;5129303;27;45309;-78
2022/03/10 07:37:46;;;;;;;6.22;3.78;;;16.90;35.90;;;;;;5124565;27;45474;-78
2022/03/10 07:40:14;;;;;;;5.55;4.13;;;16.90;35.90;;;;;;5120600;27;46401;-78
2022/03/10 07:42:41;;;;;;;5.72;4.00;;;16.80;35.80;;;;;;5122615;27;45351;-78
2022/03/10 07:45:09;;;;;;;5.90;4.00;;;16.80;35.80;;;;;;5121569;27;45318;-78
2022/03/10 07:47:36;;;;;;;6.45;4.15;;;16.80;35.90;;;;;;5120184;27;45670;-77
2022/03/10 07:50:06;;;;;;;6.65;4.13;;;16.80;37.20;;;;;;5128948;27;47373;-79
2022/03/10 07:52:33;;;;;;;6.43;4.03;;;16.90;36.10;;;;;;5126749;27;46642;-78
2022/03/10 07:55:00;;;;;;;5.10;3.90;;;16.90;36.00;;;;;;5111464;27;47151;-78
2022/03/10 07:57:27;;;;;;;6.15;3.90;;;16.90;36.20;;;;;;5115701;27;45392;-77
2022/03/10 07:59:54;;;;;;;8.18;4.28;;;16.90;36.10;;;;;;5124726;27;46229;-78
2022/03/10 08:02:21;;;;;;;5.38;3.85;;;17.00;36.00;;;;;;5119556;27;45266;-78
2022/03/10 08:04:48;;;;;;;5.45;3.67;;;17.00;35.90;;;;;;5124598;27;45151;-78
2022/03/10 08:07:17;;;;;;;5.75;3.70;;;17.00;35.90;;;;;;5124562;27;45777;-78
2022/03/10 08:09:44;;;;;;;5.45;3.50;;;17.00;35.90;;;;;;5121651;27;47361;-78
2022/03/10 08:12:11;;;;;;;4.97;3.47;;;17.00;36.00;;;;;;5123505;27;45240;-78
2022/03/10 08:14:38;;;;;;;4.88;3.45;;;17.00;36.20;;;;;;5125125;27;45245;-78
2022/03/10 08:17:05;;;;;;;9.20;3.85;;;17.00;36.00;;;;;;5128995;27;45349;-78
2022/03/10 08:19:32;;;;;;;7.65;4.00;;;17.00;35.90;;;;;;5128747;27;45474;-78
2022/03/10 08:21:59;;;;;;;7.35;4.60;;;17.00;35.90;;;;;;5117516;27;45256;-78
2022/03/10 08:24:28;;;;;;;6.30;4.07;;;17.00;35.60;;;;;;5110898;27;45497;-78
2022/03/10 08:26:56;;;;;;;5.75;3.70;;;17.00;35.70;;;;;;5123996;27;45704;-78
2022/03/10 08:29:23;;;;;;;5.93;4.10;;;17.00;35.60;;;;;;5127128;27;45315;-78
2022/03/10 08:31:50;;;;;;;7.32;3.90;;;17.00;35.60;;;;;;5123055;27;45947;-78
2022/03/10 08:34:17;;;;;;;5.75;3.42;;;16.90;35.60;;;;;;5127222;27;46346;-78
2022/03/10 08:36:44;;;;;;;5.90;3.53;;;17.00;35.90;;;;;;5129374;27;45228;-78
2022/03/10 08:39:11;;;;;;;6.32;4.03;;;16.90;35.80;;;;;;5116945;27;46292;-79
2022/03/10 08:41:39;;;;;;;5.85;3.85;;;16.90;35.70;;;;;;5122265;27;45590;-78
2022/03/10 08:44:05;;;;;;;7.07;3.97;;;16.90;35.80;;;;;;5124429;27;45278;-78
2022/03/10 08:46:32;;;;;;;6.28;3.67;;;16.90;35.80;;;;;;5125445;27;45150;-78
2022/03/10 08:49:00;;;;;;;5.65;3.72;;;16.90;35.80;;;;;;5121609;27;46246;-78
2022/03/10 08:51:27;;;;;;;5.30;3.55;;;16.90;35.70;;;;;;5129749;27;45202;-78
2022/03/10 08:53:54;;;;;;;4.50;3.58;;;17.00;35.60;;;;;;5129944;27;45297;-78
2022/03/10 08:56:21;;;;;;;7.05;4.05;;;17.00;35.60;;;;;;5138187;27;45169;-78
2022/03/10 08:58:49;;;;;;;5.53;3.75;;;17.00;35.50;;;;;;5122173;27;46171;-78
2022/03/10 09:01:18;;;;;;;5.55;3.50;;;17.00;35.40;;;;;;5118519;27;45246;-78
2022/03/10 09:03:44;;;;;;;6.40;3.70;;;17.00;35.70;;;;;;5128062;27;45424;-78
2022/03/10 09:06:12;;;;;;;5.90;3.53;;;17.00;35.70;;;;;;5126261;27;45098;-78
2022/03/10 09:08:39;;;;;;;7.30;3.67;;;17.00;35.50;;;;;;5124675;27;46393;-78
2022/03/10 09:11:06;;;;;;;6.53;4.53;;;17.00;35.60;;;;;;5127983;27;45204;-78
2022/03/10 09:13:33;;;;;;;5.10;3.40;;;17.00;35.50;;;;;;5125644;27;45157;-78
2022/03/10 09:16:02;;;;;;;4.68;3.40;;;17.00;35.60;;;;;;5128371;27;45568;-78
2022/03/10 09:18:29;;;;;;;4.38;3.35;;;17.00;35.90;;;;;;5116867;27;45494;-78
2022/03/10 09:20:56;;;;;;;5.32;3.80;;;17.00;36.10;;;;;;5129589;27;45193;-78
2022/03/10 09:23:22;;;;;;;5.32;3.38;;;17.00;36.20;;;;;;5127945;27;45369;-78
2022/03/10 09:25:49;;;;;;;6.25;3.55;;;17.00;36.20;;;;;;5108964;27;45217;-78
2022/03/10 09:28:16;;;;;;;6.35;3.67;;;17.00;36.10;;;;;;5125001;27;46386;-78
2022/03/10 09:30:43;;;;;;;6.70;4.20;;;17.00;36.60;;;;;;5128709;27;45285;-78
2022/03/10 09:33:11;;;;;;;4.85;3.28;;;16.90;36.10;;;;;;5128044;27;45436;-78
2022/03/10 09:35:38;;;;;;;5.45;3.55;;;17.00;36.30;;;;;;5115590;27;45451;-78
2022/03/10 09:38:05;;;;;;;5.13;3.63;;;16.90;36.20;;;;;;5110393;27;45476;-78
2022/03/10 09:40:32;;;;;;;5.45;3.40;;;17.00;36.40;;;;;;5126601;27;45513;-78
2022/03/10 09:42:59;;;;;;;4.90;3.65;;;17.00;36.60;;;;;;5128991;27;45148;-78
2022/03/10 09:45:30;;;;;;;5.50;3.20;;;17.00;36.40;;;;;;5129367;27;45197;-78
2022/03/10 09:47:56;;;;;;;7.90;3.85;;;17.00;36.10;;;;;;5117377;27;47082;-78
2022/03/10 09:50:25;;;;;;;4.88;3.53;;;17.00;36.00;;;;;;5126789;27;45296;-78
2022/03/10 09:52:52;;;;;;;4.88;3.80;;;17.00;36.20;;;;;;5125556;27;45428;-78
2022/03/10 09:55:19;;;;;;;6.00;3.47;;;17.10;36.20;;;;;;5120280;27;45209;-78
2022/03/10 09:57:48;;;;;;;5.50;3.85;;;17.10;36.20;;;;;;5116959;27;47713;-78
2022/03/10 10:00:17;;;;;;;4.90;3.42;;;17.10;36.20;;;;;;5125408;27;45146;-78
2022/03/10 10:02:44;;;;;;;4.25;3.22;;;17.00;36.20;;;;;;5124476;27;45249;-78
2022/03/10 10:05:22;;;;;;;6.82;3.90;;;17.00;36.70;;;;;;5120272;27;45263;-78
2022/03/10 10:08:02;;;;;;;6.75;3.78;;;17.00;36.20;;;;;;5123524;27;45485;-78
2022/03/10 10:10:30;;;;;;;4.63;3.17;;;17.10;36.30;;;;;;5121458;27;45192;-78
2022/03/10 10:12:58;;;;;;;7.03;4.68;;;17.10;36.30;;;;;;5119733;27;45238;-78
2022/03/10 10:15:24;;;;;;;5.78;3.63;;;17.10;37.60;;;;;;5108333;27;45342;-77
2022/03/10 10:17:56;;;;;;;5.15;3.90;;;17.10;36.50;;;;;;5119504;27;47504;-78
2022/03/10 10:20:24;;;;;;;6.10;4.25;;;17.10;36.60;;;;;;5116549;27;45206;-78
2022/03/10 10:22:51;;;;;;;6.22;3.85;;;17.10;36.40;;;;;;5124341;27;45203;-78
2022/03/10 10:25:23;;;;;;;7.72;3.97;;;17.10;36.20;;;;;;5129489;27;45372;-77
2022/03/10 10:27:50;;;;;;;6.72;3.85;;;17.10;36.40;;;;;;5111110;27;45485;-78
2022/03/10 10:30:17;;;;;;;7.00;4.10;;;17.10;36.50;;;;;;5107457;27;45282;-78
2022/03/10 10:32:49;;;;;;;6.82;4.32;;;17.10;36.40;;;;;;5110690;27;45382;-77
2022/03/10 10:35:20;;;;;;;6.75;4.10;;;17.10;36.50;;;;;;5126395;27;45847;-77
2022/03/10 10:37:50;;;;;;;8.32;4.85;;;17.10;36.60;;;;;;5115421;27;47756;-77
2022/03/10 10:40:22;;;;;;;7.45;4.15;;;17.00;36.60;;;;;;5125145;27;45219;-78
2022/03/10 10:42:49;;;;;;;6.93;3.75;;;17.00;36.90;;;;;;5124656;27;45318;-78
2022/03/10 10:45:31;;;;;;;6.20;4.18;;;17.00;37.00;;;;;;5127066;27;45533;-78
2022/03/10 10:48:02;;;;;;;5.40;3.60;;;16.90;37.20;;;;;;5126281;27;45467;-78
2022/03/10 10:50:30;;;;;;;6.65;4.45;;;16.90;37.00;;;;;;5127638;27;45257;-78
2022/03/10 10:52:57;;;;;;;5.70;3.83;;;16.90;36.90;;;;;;5125809;27;45265;-77
2022/03/10 10:55:33;;;;;;;7.18;4.38;;;16.90;36.70;;;;;;5131340;27;45506;-77
2022/03/10 10:58:09;;;;;;;6.72;3.88;;;16.90;36.70;;;;;;5129281;27;46448;-78
2022/03/10 11:00:44;;;;;;;7.75;4.43;;;16.90;36.90;;;;;;5121554;27;45226;-77
2022/03/10 11:03:26;;;;;;;6.55;4.30;;;16.90;37.00;;;;;;5128999;27;45165;-77
2022/03/10 11:05:54;;;;;;;8.02;4.55;;;17.00;36.60;;;;;;5119373;27;45219;-77
2022/03/10 11:08:22;;;;;;;6.07;4.32;;;17.00;36.60;;;;;;5122842;27;46241;-78
2022/03/10 11:10:51;;;;;;;7.60;4.43;;;17.00;36.90;;;;;;5130825;27;45421;-78
2022/03/10 11:13:18;;;;;;;7.97;4.40;;;16.90;37.00;;;;;;5138324;27;45552;-78
2022/03/10 11:15:47;;;;;;;7.28;4.45;;;16.90;36.60;;;;;;5128499;27;45182;-78
2022/03/10 11:18:15;;;;;;;7.13;4.32;;;17.00;36.60;;;;;;5126774;27;45476;-78
2022/03/10 11:20:45;;;;;;;7.18;4.32;;;17.00;36.60;;;;;;5132412;27;45234;-78
2022/03/10 11:23:20;;;;;;;7.20;4.70;;;17.00;36.70;;;;;;5132199;27;45659;-78
2022/03/10 11:25:55;;;;;;;6.53;4.25;;;17.10;36.70;;;;;;5127347;27;45415;-78
2022/03/10 11:28:26;;;;;;;7.53;4.55;;;17.00;36.90;;;;;;5113642;27;45309;-78
2022/03/10 11:30:56;;;;;;;7.43;4.38;;;17.10;36.80;;;;;;5117664;27;45128;-78
2022/03/10 11:33:30;;;;;;;5.85;3.90;;;17.10;37.00;;;;;;5120134;27;45249;-78
2022/03/10 11:35:58;;;;;;;6.82;4.22;;;17.10;37.30;;;;;;5111537;27;45251;-78
2022/03/10 11:38:49;;;;;;;6.70;4.30;;;17.10;36.90;;;;;;5116293;27;46671;-78
2022/03/10 11:41:18;;;;;;;8.75;4.47;;;17.10;36.60;;;;;;5131847;27;45226;-78
2022/03/10 11:43:57;;;;;;;6.18;4.13;;;17.10;37.00;;;;;;5130955;27;45245;-78
2022/03/10 11:46:27;;;;;;;7.40;4.47;;;17.10;37.00;;;;;;5129259;27;45581;-78
2022/03/10 11:49:01;;;;;;;6.30;4.00;;;17.10;36.60;;;;;;5109378;27;46680;-78
2022/03/10 11:51:48;;;;;;;8.32;4.97;;;17.10;36.50;;;;;;5109040;27;45217;-78
2022/03/10 11:54:19;;;;;;;6.47;4.55;;;17.10;37.70;;;;;;5121438;27;45249;-78
2022/03/10 11:57:11;;;;;;;6.28;3.85;;;17.10;36.90;;;;;;5130148;27;45127;-78
2022/03/10 11:59:49;;;;;;;7.05;4.60;;;17.10;36.80;;;;;;5129256;27;48354;-78
2022/03/10 12:02:44;;;;;;;7.72;4.40;;;17.10;36.60;;;;;;5116137;27;45245;-77
2022/03/10 12:05:13;;;;;;;7.32;4.18;;;17.10;36.60;;;;;;5116012;27;45233;-78
2022/03/10 12:07:45;;;;;;;6.88;4.03;;;17.10;36.60;;;;;;5110479;27;45440;-77
2022/03/10 12:10:17;;;;;;;6.55;4.40;;;17.10;36.70;;;;;;5118938;27;48006;-77
2022/03/10 12:12:46;;;;;;;5.55;3.83;;;17.10;36.90;;;;;;5117385;27;45230;-78
2022/03/10 12:15:41;;;;;;;5.75;3.67;;;17.10;36.90;;;;;;5128038;27;46040;-77
2022/03/10 12:18:26;;;;;;;5.80;3.90;;;17.10;36.90;;;;;;5127100;27;45228;-78
2022/03/10 12:20:55;;;;;;;6.60;4.00;;;17.10;36.40;;;;;;5130268;27;46255;-77
2022/03/10 12:23:25;;;;;;;7.10;4.10;;;17.10;36.50;;;;;;5141417;27;45208;-77
2022/03/10 12:25:54;;;;;;;7.85;4.38;;;17.10;36.30;;;;;;5126214;27;45365;-77
2022/03/10 12:28:26;;;;;;;6.72;4.47;;;17.10;35.90;;;;;;5123667;27;45277;-77
2022/03/10 12:31:02;;;;;;;6.65;4.07;;;17.10;36.10;;;;;;5117443;27;45579;-77
2022/03/10 12:33:29;;;;;;;6.50;4.13;;;17.10;36.10;;;;;;5115030;27;45945;-77
2022/03/10 12:35:57;;;;;;;6.75;4.45;;;17.10;36.20;;;;;;5120178;27;45341;-77
2022/03/10 12:38:37;;;;;;;6.80;3.95;;;17.10;36.00;;;;;;5119385;27;45364;-77
2022/03/10 12:41:05;;;;;;;5.80;3.80;;;17.10;35.60;;;;;;5128251;27;46334;-77
2022/03/10 12:43:33;;;;;;;8.65;4.30;;;17.20;35.90;;;;;;5128557;27;45184;-77
2022/03/10 12:46:00;;;;;;;6.95;4.10;;;17.20;36.10;;;;;;5123015;27;45579;-77
2022/03/10 12:48:33;;;;;;;7.22;4.45;;;17.20;35.80;;;;;;5116849;27;45475;-77
2022/03/10 12:51:00;;;;;;;5.20;3.13;;;17.20;35.80;;;;;;5130604;27;47762;-77
2022/03/10 12:53:32;;;;;;;6.05;3.85;;;17.20;35.90;;;;;;5128277;27;45304;-77
2022/03/10 12:55:59;;;;;;;6.32;4.03;;;17.20;35.70;;;;;;5128837;27;45154;-77
2022/03/10 12:58:30;;;;;;;7.65;4.25;;;17.30;35.50;;;;;;5129331;27;45446;-77